Time;durP1;ratioP1;P1;durP2;ratioP2;P2;SDS_P1;SDS_P2;PMS_P1;PMS_P2;Temp;Humidity;BMP_temperature;BMP_pressure;BME280_temperature;BME280_humidity;BME280_pressure;Samples;Min_cycle;Max_cycle;Signal;HPM_P1;HPM_P2
2022/11/19 00:01:55;;;;;;;;;;;9.90;99.90;;;;;;5060204;28;20003;-72
2022/11/19 00:04:25;;;;;;;;;;;9.80;99.90;;;;;;5080660;28;19909;-72
2022/11/19 00:06:57;;;;;;;;;;;9.80;99.90;;;;;;5077309;28;20374;-72
2022/11/19 00:09:22;;;;;;;;;;;9.80;99.90;;;;;;5073825;28;19928;-73
2022/11/19 00:14:47;;;;;;;;;;;9.80;99.90;;;;;;5080623;28;19915;-72
2022/11/19 00:17:31;;;;;;;;;;;9.90;99.90;;;;;;5079569;28;20007;-72
2022/11/19 00:20:02;;;;;;;;;;;10.00;99.90;;;;;;5077097;28;20298;-72
2022/11/19 00:26:09;;;;;;;;;;;10.10;99.90;;;;;;5079277;28;19927;-72
2022/11/19 00:31:45;;;;;;;;;;;10.00;99.90;;;;;;5074049;28;19912;-71
2022/11/19 00:34:11;;;;;;;;;;;10.00;99.90;;;;;;5078144;28;19914;-73
2022/11/19 00:36:37;;;;;;;;;;;10.00;99.90;;;;;;5076387;28;19920;-72
2022/11/19 00:39:03;;;;;;;;;;;9.90;99.90;;;;;;5076880;28;19919;-71
2022/11/19 00:41:28;;;;;;;;;;;9.90;99.90;;;;;;5079174;28;19908;-71
2022/11/19 00:43:54;;;;;;;;;;;10.00;99.90;;;;;;5077943;28;19916;-71
2022/11/19 00:46:30;;;;;;;;;;;9.90;99.90;;;;;;5068232;28;19912;-72
2022/11/19 00:48:56;;;;;;;;;;;9.90;99.90;;;;;;5066148;28;19920;-72
2022/11/19 00:51:23;;;;;;;;;;;10.00;99.90;;;;;;5068936;28;19920;-72
2022/11/19 00:53:49;;;;;;;;;;;10.00;99.90;;;;;;5065035;28;19967;-72
2022/11/19 00:56:16;;;;;;;;;;;10.00;99.90;;;;;;5071801;28;20051;-72
2022/11/19 00:58:42;;;;;;;;;;;10.00;99.90;;;;;;5066276;28;19913;-73
2022/11/19 01:01:09;;;;;;;;;;;10.00;99.90;;;;;;5071741;28;19974;-73
2022/11/19 01:03:34;;;;;;;;;;;10.00;99.90;;;;;;5082176;28;19913;-72
2022/11/19 01:06:00;;;;;;;;;;;9.90;99.90;;;;;;5083858;28;20467;-73
2022/11/19 01:08:26;;;;;;;;;;;10.00;99.90;;;;;;5075542;28;19947;-72
2022/11/19 01:10:52;;;;;;;;;;;9.90;99.90;;;;;;5069929;28;19913;-72
2022/11/19 01:13:36;;;;;;;;;;;10.00;99.90;;;;;;5069524;28;19923;-73
2022/11/19 01:16:03;;;;;;;;;;;10.00;99.90;;;;;;5067682;28;19919;-72
2022/11/19 01:18:29;;;;;;;;;;;10.00;99.90;;;;;;5068698;28;19931;-72
2022/11/19 01:20:54;;;;;;;;;;;9.90;99.90;;;;;;5070839;28;19921;-72
2022/11/19 01:23:20;;;;;;;;;;;9.90;99.90;;;;;;5068885;28;19917;-73
2022/11/19 01:25:46;;;;;;;;;;;10.00;99.90;;;;;;5070720;28;19958;-72
2022/11/19 01:28:11;;;;;;;;;;;9.90;99.90;;;;;;5070267;28;19917;-72
2022/11/19 01:30:41;;;;;;;;;;;9.90;99.90;;;;;;5074522;28;19912;-73
2022/11/19 01:33:07;;;;;;;;;;;9.90;99.90;;;;;;5072659;28;19944;-72
2022/11/19 01:35:33;;;;;;;;;;;9.90;99.90;;;;;;5064862;28;19944;-73
2022/11/19 01:37:59;;;;;;;;;;;10.00;99.90;;;;;;5073819;28;20120;-72
2022/11/19 01:40:26;;;;;;;;;;;9.90;99.90;;;;;;5078371;28;19916;-73
2022/11/19 01:42:55;;;;;;;;;;;10.00;99.90;;;;;;5077115;28;19987;-74
2022/11/19 01:45:39;;;;;;;;;;;10.00;99.90;;;;;;5076314;28;19916;-72
2022/11/19 01:48:11;;;;;;;;;;;10.10;99.90;;;;;;5070732;28;19929;-72
2022/11/19 01:50:40;;;;;;;;;;;10.10;99.90;;;;;;5070769;28;19912;-73
2022/11/19 01:53:08;;;;;;;;;;;10.10;99.90;;;;;;5067936;28;19917;-73
2022/11/19 01:55:34;;;;;;;;;;;10.00;99.90;;;;;;5070619;28;20007;-72
2022/11/19 01:58:01;;;;;;;;;;;10.00;99.90;;;;;;5071027;28;19919;-71
2022/11/19 02:00:27;;;;;;;;;;;10.10;99.90;;;;;;5067403;28;20196;-72
2022/11/19 02:02:53;;;;;;;;;;;10.00;99.90;;;;;;5069660;28;19912;-71
2022/11/19 02:05:19;;;;;;;;;;;10.00;99.90;;;;;;5071160;28;19938;-72
2022/11/19 02:07:48;;;;;;;;;;;10.00;99.90;;;;;;5068919;28;20015;-71
2022/11/19 02:10:16;;;;;;;;;;;10.10;99.90;;;;;;5070750;28;19928;-72
2022/11/19 02:12:42;;;;;;;;;;;10.10;99.90;;;;;;5069137;28;19912;-72
2022/11/19 02:15:19;;;;;;;;;;;10.10;99.90;;;;;;5070299;28;19924;-73
2022/11/19 02:17:45;;;;;;;;;;;10.10;99.90;;;;;;5067776;28;19916;-72
2022/11/19 02:20:29;;;;;;;;;;;10.10;99.90;;;;;;5066819;28;19918;-73
2022/11/19 02:23:13;;;;;;;;;;;10.10;99.90;;;;;;5070057;28;19931;-72
2022/11/19 02:25:58;;;;;;;;;;;10.00;99.90;;;;;;5065469;28;19912;-72
2022/11/19 02:28:27;;;;;;;;;;;10.10;99.90;;;;;;5072729;28;19924;-71
2022/11/19 02:30:57;;;;;;;;;;;10.10;99.90;;;;;;5069431;28;19934;-72
2022/11/19 02:33:35;;;;;;;;;;;10.10;99.90;;;;;;5068301;28;19913;-73
2022/11/19 02:36:24;;;;;;;;;;;10.10;99.90;;;;;;5070469;28;19935;-73
2022/11/19 02:38:57;;;;;;;;;;;10.10;99.90;;;;;;5063551;28;19914;-72
2022/11/19 02:41:35;;;;;;;;;;;10.20;99.90;;;;;;5069416;28;19919;-71
2022/11/19 02:47:03;;;;;;;;;;;10.20;99.90;;;;;;5055519;28;20054;-72
2022/11/19 02:49:33;;;;;;;;;;;10.20;99.90;;;;;;5069047;28;19920;-72
2022/11/19 02:51:59;;;;;;;;;;;10.10;99.90;;;;;;5067825;28;20051;-73
2022/11/19 02:54:26;;;;;;;;;;;10.10;99.90;;;;;;5066935;28;19921;-72
2022/11/19 02:56:57;;;;;;;;;;;10.10;99.90;;;;;;5065273;28;19927;-72
2022/11/19 03:05:00;;;;;;;;;;;10.30;99.90;;;;;;5066351;28;19978;-72
2022/11/19 03:07:25;;;;;;;;;;;10.30;99.90;;;;;;5083440;28;19925;-72
2022/11/19 03:09:53;;;;;;;;;;;10.30;99.90;;;;;;5069837;28;19970;-72
2022/11/19 03:12:27;;;;;;;;;;;10.40;99.90;;;;;;5070738;28;20374;-72
2022/11/19 03:17:44;;;;;;;;;;;10.30;99.90;;;;;;5068314;28;20430;-72
2022/11/19 03:20:33;;;;;;;;;;;10.30;99.90;;;;;;5072180;28;19912;-72
2022/11/19 03:23:21;;;;;;;;;;;10.40;99.90;;;;;;5071004;28;20046;-71
2022/11/19 03:25:52;;;;;;;;;;;10.40;99.90;;;;;;5065640;28;19921;-71
2022/11/19 03:28:29;;;;;;;;;;;10.40;99.90;;;;;;5064512;28;20439;-72
2022/11/19 03:30:57;;;;;;;;;;;10.50;99.90;;;;;;5067919;28;20430;-71
2022/11/19 03:33:23;;;;;;;;;;;10.40;99.90;;;;;;5063765;28;19912;-71
2022/11/19 03:35:56;;;;;;;;;;;10.30;99.90;;;;;;5068139;28;20445;-71
2022/11/19 03:38:29;;;;;;;;;;;10.30;99.90;;;;;;5073408;28;19966;-72
2022/11/19 03:40:56;;;;;;;;;;;10.30;99.90;;;;;;5076054;28;20433;-72
2022/11/19 03:43:25;;;;;;;;;;;10.30;99.90;;;;;;5079723;28;19908;-72
2022/11/19 03:45:54;;;;;;;;;;;10.30;99.90;;;;;;5070753;28;20267;-72
2022/11/19 03:48:21;;;;;;;;;;;10.30;99.90;;;;;;5066472;28;20520;-72
2022/11/19 03:51:08;;;;;;;;;;;10.30;99.90;;;;;;5070693;28;20274;-71
2022/11/19 03:53:34;;;;;;;;;;;10.30;99.90;;;;;;5069273;28;19927;-72
2022/11/19 03:56:04;;;;;;;;;;;10.40;99.90;;;;;;5066029;28;20379;-72
2022/11/19 03:58:35;;;;;;;;;;;10.40;99.90;;;;;;5067301;28;19920;-72
2022/11/19 04:01:01;;;;;;;;;;;10.40;99.90;;;;;;5069118;28;20026;-72
2022/11/19 04:03:27;;;;;;;;;;;10.50;99.90;;;;;;5065121;28;19913;-72
2022/11/19 04:05:52;;;;;;;;;;;10.50;99.90;;;;;;5065994;28;19920;-72
2022/11/19 04:08:18;;;;;;;;;;;10.50;99.90;;;;;;5068339;28;19917;-71
2022/11/19 04:10:44;;;;;;;;;;;10.50;99.90;;;;;;5069888;28;19967;-72
2022/11/19 04:13:09;;;;;;;;;;;10.50;99.90;;;;;;5070598;28;19920;-72
2022/11/19 04:15:35;;;;;;;;;;;10.50;99.90;;;;;;5067160;28;19984;-72
2022/11/19 04:18:01;;;;;;;;;;;10.50;99.90;;;;;;5068640;28;19913;-71
2022/11/19 04:20:26;;;;;;;;;;;10.60;99.90;;;;;;5067118;28;19931;-72
2022/11/19 04:22:52;;;;;;;;;;;10.50;99.90;;;;;;5068600;28;19917;-72
2022/11/19 04:25:18;;;;;;;;;;;10.50;99.90;;;;;;5064860;28;19952;-72
2022/11/19 04:27:45;;;;;;;;;;;10.60;99.90;;;;;;5063337;28;19947;-73
2022/11/19 04:30:11;;;;;;;;;;;10.60;99.90;;;;;;5066934;28;19912;-72
2022/11/19 04:32:36;;;;;;;;;;;10.60;99.90;;;;;;5065778;28;19924;-72
2022/11/19 04:35:02;;;;;;;;;;;10.60;99.90;;;;;;5066198;28;19917;-73
2022/11/19 04:37:28;;;;;;;;;;;10.60;99.90;;;;;;5066289;28;19912;-72
2022/11/19 04:39:54;;;;;;;;;;;10.60;99.90;;;;;;5074813;28;19920;-72
2022/11/19 04:42:19;;;;;;;;;;;10.50;99.90;;;;;;5073103;28;19923;-71
2022/11/19 04:44:45;;;;;;;;;;;10.50;99.90;;;;;;5089453;28;19931;-72
2022/11/19 04:47:11;;;;;;;;;;;10.50;99.90;;;;;;5068223;28;19917;-72
2022/11/19 04:49:37;;;;;;;;;;;10.60;99.90;;;;;;5077575;28;19938;-71
2022/11/19 04:52:02;;;;;;;;;;;10.70;99.90;;;;;;5068684;28;19980;-72
2022/11/19 04:54:28;;;;;;;;;;;10.70;99.90;;;;;;5072464;28;20090;-72
2022/11/19 04:56:54;;;;;;;;;;;10.70;99.90;;;;;;5074763;28;19913;-72
2022/11/19 04:59:20;;;;;;;;;;;10.70;99.90;;;;;;5074801;28;19919;-73
2022/11/19 05:01:45;;;;;;;;;;;10.70;99.90;;;;;;5075159;28;19955;-72
2022/11/19 05:04:11;;;;;;;;;;;10.70;99.90;;;;;;5074409;28;19921;-72
2022/11/19 05:06:37;;;;;;;;;;;10.70;99.90;;;;;;5076403;28;19912;-73
2022/11/19 05:09:03;;;;;;;;;;;10.80;99.90;;;;;;5089592;28;19995;-72
2022/11/19 05:11:28;;;;;;;;;;;10.80;99.90;;;;;;5075947;28;19916;-72
2022/11/19 05:13:54;;;;;;;;;;;10.80;99.90;;;;;;5075348;28;19912;-71
2022/11/19 05:16:20;;;;;;;;;;;10.80;99.90;;;;;;5074016;28;19918;-72
2022/11/19 05:18:45;;;;;;;;;;;10.80;99.90;;;;;;5074550;28;19919;-72
2022/11/19 05:21:11;;;;;;;;;;;10.80;99.90;;;;;;5076285;28;19935;-72
2022/11/19 05:23:37;;;;;;;;;;;10.80;99.90;;;;;;5074401;28;19912;-71
2022/11/19 05:26:03;;;;;;;;;;;10.80;99.90;;;;;;5068789;28;20006;-71
2022/11/19 05:28:31;;;;;;;;;;;10.80;99.90;;;;;;5068473;28;19932;-71
2022/11/19 05:30:58;;;;;;;;;;;10.80;99.90;;;;;;5073772;28;19923;-72
2022/11/19 05:33:23;;;;;;;;;;;10.80;99.90;;;;;;5074420;28;19913;-72
2022/11/19 05:35:49;;;;;;;;;;;10.80;99.90;;;;;;5079751;28;20387;-72
2022/11/19 05:38:15;;;;;;;;;;;10.70;99.90;;;;;;5073819;28;20011;-71
2022/11/19 05:40:42;;;;;;;;;;;10.60;99.90;;;;;;5080733;28;19979;-71
2022/11/19 05:43:08;;;;;;;;;;;10.60;99.90;;;;;;5068825;28;20328;-72
2022/11/19 05:45:34;;;;;;;;;;;10.60;99.90;;;;;;5067748;28;19931;-72
2022/11/19 05:48:00;;;;;;;;;;;10.40;99.90;;;;;;5070874;28;19971;-72
2022/11/19 05:50:25;;;;;;;;;;;10.50;99.90;;;;;;5073487;28;20473;-71
2022/11/19 05:52:51;;;;;;;;;;;10.50;99.90;;;;;;5090824;28;19913;-71
2022/11/19 05:55:17;;;;;;;;;;;10.50;99.90;;;;;;5076934;28;19935;-73
2022/11/19 05:57:43;;;;;;;;;;;10.50;99.90;;;;;;5077200;28;19924;-72
2022/11/19 06:00:09;;;;;;;;;;;10.50;99.90;;;;;;5079283;28;20293;-72
2022/11/19 06:02:35;;;;;;;;;;;10.40;99.90;;;;;;5073923;28;19965;-72
2022/11/19 06:05:00;;;;;;;;;;;10.40;99.90;;;;;;5072253;28;20469;-72
2022/11/19 06:07:26;;;;;;;;;;;10.40;99.90;;;;;;5078691;28;19960;-72
2022/11/19 06:09:52;;;;;;;;;;;10.30;99.90;;;;;;5079899;28;20097;-72
2022/11/19 06:12:18;;;;;;;;;;;10.40;99.90;;;;;;5078018;28;19924;-72
2022/11/19 06:14:43;;;;;;;;;;;10.40;99.90;;;;;;5070459;28;19920;-72
2022/11/19 06:17:09;;;;;;;;;;;10.50;99.90;;;;;;5076354;28;19920;-72
2022/11/19 06:19:35;;;;;;;;;;;10.50;99.90;;;;;;5078208;28;20336;-72
2022/11/19 06:22:00;;;;;;;;;;;10.60;99.90;;;;;;5073628;28;19912;-73
2022/11/19 06:24:26;;;;;;;;;;;10.60;99.90;;;;;;5068654;28;19923;-72
2022/11/19 06:26:52;;;;;;;;;;;10.70;99.90;;;;;;5068213;28;19967;-71
2022/11/19 06:29:18;;;;;;;;;;;10.70;99.90;;;;;;5066653;28;20536;-72
2022/11/19 06:31:44;;;;;;;;;;;10.70;99.90;;;;;;5070659;28;19917;-72
2022/11/19 06:34:10;;;;;;;;;;;10.70;99.90;;;;;;5067359;28;20417;-71
2022/11/19 06:36:36;;;;;;;;;;;10.70;99.90;;;;;;5084110;28;20840;-72
2022/11/19 06:39:02;;;;;;;;;;;10.70;99.90;;;;;;5069646;28;19920;-72
2022/11/19 06:41:27;;;;;;;;;;;10.80;99.90;;;;;;5065427;28;19912;-73
2022/11/19 06:43:53;;;;;;;;;;;10.90;99.90;;;;;;5065129;28;19921;-72
2022/11/19 06:46:19;;;;;;;;;;;10.90;99.90;;;;;;5058245;28;19927;-72
2022/11/19 06:48:45;;;;;;;;;;;10.90;99.90;;;;;;5069141;28;19925;-72
2022/11/19 06:51:10;;;;;;;;;;;10.90;99.90;;;;;;5068182;28;20008;-72
2022/11/19 06:53:36;;;;;;;;;;;10.90;99.90;;;;;;5066529;28;20362;-72
2022/11/19 06:56:06;;;;;;;;;;;10.90;99.90;;;;;;5066966;28;20003;-73
2022/11/19 06:58:33;;;;;;;;;;;10.80;99.90;;;;;;5071567;28;19934;-72
2022/11/19 07:00:58;;;;;;;;;;;10.80;99.90;;;;;;5067158;28;19967;-72
2022/11/19 07:03:24;;;;;;;;;;;10.80;99.90;;;;;;5067115;28;19943;-72
2022/11/19 07:05:53;;;;;;;;;;;10.90;99.90;;;;;;5069215;28;19913;-72
2022/11/19 07:08:19;;;;;;;;;;;11.00;99.90;;;;;;5069933;28;19951;-72
2022/11/19 07:10:45;;;;;;;;;;;11.00;99.90;;;;;;5060371;28;19917;-72
2022/11/19 07:13:12;;;;;;;;;;;11.00;99.90;;;;;;5070695;28;19934;-71
2022/11/19 07:15:37;;;;;;;;;;;11.00;99.90;;;;;;5068212;28;20351;-73
2022/11/19 07:18:03;;;;;;;;;;;11.00;99.90;;;;;;5066913;28;19912;-71
2022/11/19 07:20:29;;;;;;;;;;;11.10;99.90;;;;;;5070104;28;19966;-73
2022/11/19 07:22:55;;;;;;;;;;;11.10;99.90;;;;;;5067355;28;19924;-72
2022/11/19 07:25:20;;;;;;;;;;;11.10;99.90;;;;;;5065554;28;20008;-71
2022/11/19 07:27:46;;;;;;;;;;;11.10;99.90;;;;;;5065966;28;19917;-72
2022/11/19 07:30:13;;;;;;;;;;;11.20;99.90;;;;;;5070109;28;20003;-73
2022/11/19 07:32:39;;;;;;;;;;;11.20;99.90;;;;;;5062854;28;20007;-72
2022/11/19 07:35:05;;;;;;;;;;;11.30;99.90;;;;;;5066606;28;20302;-71
2022/11/19 07:37:33;;;;;;;;;;;11.30;99.90;;;;;;5066312;28;19967;-72
2022/11/19 07:39:59;;;;;;;;;;;11.40;99.90;;;;;;5067415;28;19916;-74
2022/11/19 07:45:09;;;;;;;;;;;11.60;99.90;;;;;;5068466;28;20006;-73
2022/11/19 07:47:35;;;;;;;;;;;11.70;99.90;;;;;;5074283;28;19920;-72
2022/11/19 07:50:01;;;;;;;;;;;11.80;99.90;;;;;;5067169;28;19913;-72
2022/11/19 07:52:27;;;;;;;;;;;11.90;99.90;;;;;;5067483;28;19920;-72
2022/11/19 07:54:53;;;;;;;;;;;11.90;99.90;;;;;;5068175;28;19998;-72
2022/11/19 07:57:18;;;;;;;;;;;12.00;99.90;;;;;;5066489;28;20321;-71
2022/11/19 07:59:47;;;;;;;;;;;12.00;99.90;;;;;;5066754;28;19913;-71
2022/11/19 08:02:13;;;;;;;;;;;12.00;99.90;;;;;;5078196;28;19913;-71
2022/11/19 08:04:39;;;;;;;;;;;12.00;99.90;;;;;;5065265;28;19913;-72
2022/11/19 08:07:05;;;;;;;;;;;12.10;99.90;;;;;;5071735;28;19999;-72
2022/11/19 08:09:31;;;;;;;;;;;12.10;99.90;;;;;;5065816;28;19991;-71
2022/11/19 08:13:02;;;;;;;;;;;12.20;99.90;;;;;;5069346;28;19963;-72
2022/11/19 08:15:06;;;;;;;;;;;12.20;99.90;;;;;;5065042;28;19920;-71
2022/11/19 08:20:16;;;;;;;;;;;12.30;99.90;;;;;;5075283;28;19923;-71
2022/11/19 08:22:45;;;;;;;;;;;12.30;99.90;;;;;;5073299;28;19913;-71
2022/11/19 08:25:11;;;;;;;;;;;12.40;99.90;;;;;;5077652;28;19962;-72
2022/11/19 08:27:36;;;;;;;;;;;12.50;99.90;;;;;;5076887;28;19917;-71
2022/11/19 08:30:03;;;;;;;;;;;12.50;99.90;;;;;;5077320;28;19920;-72
2022/11/19 08:32:35;;;;;;;;;;;12.50;99.90;;;;;;5074470;28;19916;-72
2022/11/19 08:35:00;;;;;;;;;;;12.60;99.90;;;;;;5076234;28;19912;-73
2022/11/19 08:37:26;;;;;;;;;;;12.60;99.90;;;;;;5077312;28;19919;-71
2022/11/19 08:39:52;;;;;;;;;;;12.60;99.90;;;;;;5077271;28;19913;-71
2022/11/19 08:45:06;;;;;;;;;;;12.60;99.90;;;;;;5074090;28;19925;-72
2022/11/19 08:47:31;;;;;;;;;;;12.60;99.90;;;;;;5071248;28;19920;-72
2022/11/19 08:49:57;;;;;;;;;;;12.60;99.90;;;;;;5066220;28;20320;-71
2022/11/19 08:52:22;;;;;;;;;;;12.60;99.90;;;;;;5069841;28;19912;-71
2022/11/19 08:54:48;;;;;;;;;;;12.60;99.90;;;;;;5071989;28;19994;-71
2022/11/19 08:57:14;;;;;;;;;;;12.60;99.90;;;;;;5070081;28;19919;-72
2022/11/19 08:59:40;;;;;;;;;;;12.60;99.90;;;;;;5069230;28;19916;-71
2022/11/19 09:02:08;;;;;;;;;;;12.60;99.90;;;;;;5085656;28;19912;-72
2022/11/19 09:04:33;;;;;;;;;;;12.60;99.90;;;;;;5089625;28;19912;-72
2022/11/19 09:06:59;;;;;;;;;;;12.60;99.90;;;;;;5068659;28;19939;-71
2022/11/19 09:09:25;;;;;;;;;;;12.60;99.90;;;;;;5086015;28;20424;-67
2022/11/19 09:11:50;;;;;;;;;;;12.60;99.90;;;;;;5073822;28;19965;-67
2022/11/19 09:14:17;;;;;;;;;;;12.60;99.90;;;;;;5073330;28;19916;-66
2022/11/19 09:16:43;;;;;;;;;;;12.70;99.90;;;;;;5057704;28;20396;-67
2022/11/19 09:19:08;;;;;;;;;;;12.80;99.90;;;;;;5076122;28;19919;-67
2022/11/19 09:21:34;;;;;;;;;;;12.80;99.90;;;;;;5075226;28;19931;-69
2022/11/19 09:23:59;;;;;;;;;;;12.80;99.90;;;;;;5071240;28;19920;-71
2022/11/19 09:26:25;;;;;;;;;;;12.80;99.90;;;;;;5075673;28;19923;-71
2022/11/19 09:28:51;;;;;;;;;;;12.80;99.90;;;;;;5076156;28;19916;-69
2022/11/19 09:31:17;;;;;;;;;;;12.80;99.90;;;;;;5073148;28;19934;-72
2022/11/19 09:33:44;;;;;;;;;;;12.80;99.90;;;;;;5073896;28;19917;-71
2022/11/19 09:36:11;;;;;;;;;;;12.80;99.90;;;;;;5072775;28;19935;-71
2022/11/19 09:38:38;;;;;;;;;;;12.90;99.90;;;;;;5075390;28;20395;-71
2022/11/19 09:41:09;;;;;;;;;;;12.90;99.90;;;;;;5068352;28;20668;-71
2022/11/19 09:43:48;;;;;;;;;;;12.90;99.90;;;;;;5077745;28;19955;-72
2022/11/19 09:46:20;;;;;;;;;;;13.00;99.90;;;;;;5074103;28;19916;-72
2022/11/19 09:48:46;;;;;;;;;;;13.00;99.90;;;;;;5076195;28;19956;-72
2022/11/19 09:51:17;;;;;;;;;;;13.10;99.90;;;;;;5075978;28;20374;-71
2022/11/19 09:53:50;;;;;;;;;;;13.10;99.90;;;;;;5077095;28;19912;-72
2022/11/19 09:56:21;;;;;;;;;;;13.20;99.90;;;;;;5074480;28;20282;-71
2022/11/19 09:58:47;;;;;;;;;;;13.20;99.90;;;;;;5077553;28;19917;-71
2022/11/19 10:01:17;;;;;;;;;;;13.30;99.90;;;;;;5073076;28;20326;-71
2022/11/19 10:03:47;;;;;;;;;;;13.40;99.90;;;;;;5072162;28;19920;-71
2022/11/19 10:06:15;;;;;;;;;;;13.50;99.90;;;;;;5076414;28;19912;-71
2022/11/19 10:08:53;;;;;;;;;;;13.50;99.90;;;;;;5067721;28;19918;-72
2022/11/19 10:11:28;;;;;;;;;;;13.60;99.90;;;;;;5075167;28;20005;-71
2022/11/19 10:13:53;;;;;;;;;;;13.80;99.90;;;;;;5073902;28;19908;-72
2022/11/19 10:16:19;;;;;;;;;;;14.00;99.90;;;;;;5071605;28;19994;-71
2022/11/19 10:18:44;;;;;;;;;;;14.10;99.90;;;;;;5075594;28;20325;-71
2022/11/19 10:21:15;;;;;;;;;;;14.20;99.90;;;;;;5075806;28;19912;-72
2022/11/19 10:23:53;;;;;;;;;;;14.30;99.90;;;;;;5076351;28;19908;-72
2022/11/19 10:26:25;;;;;;;;;;;14.40;99.90;;;;;;5075461;28;19966;-71
2022/11/19 10:28:55;;;;;;;;;;;14.40;99.90;;;;;;5076771;28;19916;-71
2022/11/19 10:31:31;;;;;;;;;;;14.50;99.90;;;;;;5076091;28;19965;-71
2022/11/19 10:34:06;;;;;;;;;;;14.50;99.90;;;;;;5079595;28;19913;-71
2022/11/19 10:36:37;;;;;;;;;;;14.60;99.90;;;;;;5075996;28;19908;-71
2022/11/19 10:39:15;;;;;;;;;;;14.60;99.90;;;;;;5076911;28;19916;-71
2022/11/19 10:41:44;;;;;;;;;;;14.60;99.90;;;;;;5072582;28;20730;-71
2022/11/19 10:44:10;;;;;;;;;;;14.40;99.90;;;;;;5073835;28;19923;-71
2022/11/19 10:46:36;;;;;;;;;;;14.30;99.90;;;;;;5075259;28;19913;-71
2022/11/19 10:49:02;;;;;;;;;;;14.20;99.90;;;;;;5077373;28;20285;-72
2022/11/19 10:51:29;;;;;;;;;;;14.10;99.90;;;;;;5073667;28;19920;-71
2022/11/19 10:53:56;;;;;;;;;;;14.00;99.90;;;;;;5073705;28;19923;-71
2022/11/19 10:56:37;;;;;;;;;;;13.90;99.90;;;;;;5075952;28;19912;-71
2022/11/19 10:59:08;;;;;;;;;;;13.80;99.90;;;;;;5075583;28;19909;-71
2022/11/19 11:01:36;;;;;;;;;;;13.80;99.90;;;;;;5069229;28;19975;-69
2022/11/19 11:04:17;;;;;;;;;;;13.80;99.90;;;;;;5075486;28;19912;-71
2022/11/19 11:06:50;;;;;;;;;;;13.80;99.90;;;;;;5075573;28;19912;-71
2022/11/19 11:09:34;;;;;;;;;;;13.90;99.90;;;;;;5065575;28;19922;-71
2022/11/19 11:14:53;;;;;;;;;;;13.80;99.90;;;;;;5073534;28;19995;-71
2022/11/19 11:17:29;;;;;;;;;;;13.80;99.90;;;;;;5075660;28;19935;-71
2022/11/19 11:20:00;;;;;;;;;;;13.90;99.90;;;;;;5074182;28;20254;-71
2022/11/19 11:22:27;;;;;;;;;;;14.00;99.90;;;;;;5074745;28;19916;-72
2022/11/19 11:24:52;;;;;;;;;;;13.90;99.90;;;;;;5073859;28;19908;-68
2022/11/19 11:27:18;;;;;;;;;;;13.90;99.90;;;;;;5073201;28;20386;-71
2022/11/19 11:29:44;;;;;;;;;;;13.80;99.90;;;;;;5073456;28;20018;-71
2022/11/19 11:32:26;;;;;;;;;;;13.80;99.90;;;;;;5073229;28;19912;-71
2022/11/19 11:34:51;;;;;;;;;;;13.80;99.90;;;;;;5075554;28;19919;-72
2022/11/19 11:37:17;;;;;;;;;;;13.80;99.90;;;;;;5073494;28;19924;-71
2022/11/19 11:39:43;;;;;;;;;;;13.80;99.90;;;;;;5074894;28;19908;-70
2022/11/19 11:42:11;;;;;;;;;;;13.70;99.90;;;;;;5071977;28;19913;-71
2022/11/19 11:44:38;;;;;;;;;;;13.60;99.90;;;;;;5074561;28;19909;-71
2022/11/19 11:47:11;;;;;;;;;;;13.50;99.90;;;;;;5073482;28;19920;-71
2022/11/19 11:49:42;;;;;;;;;;;13.40;99.90;;;;;;5074896;28;19909;-71
2022/11/19 11:52:08;;;;;;;;;;;13.40;99.90;;;;;;5077660;28;19913;-71
2022/11/19 11:54:34;;;;;;;;;;;13.30;99.90;;;;;;5073211;28;19919;-71
2022/11/19 11:57:15;;;;;;;;;;;13.30;99.90;;;;;;5073293;28;19912;-71
2022/11/19 11:59:41;;;;;;;;;;;13.30;99.90;;;;;;5071976;28;19924;-71
2022/11/19 12:02:16;;;;;;;;;;;13.20;99.90;;;;;;5071008;28;19916;-72
2022/11/19 12:04:42;;;;;;;;;;;13.20;99.90;;;;;;5067924;28;19981;-71
2022/11/19 12:07:17;;;;;;;;;;;13.20;99.90;;;;;;5070201;28;20374;-71
2022/11/19 12:10:02;;;;;;;;;;;13.10;99.90;;;;;;5078973;28;19917;-70
2022/11/19 12:12:28;;;;;;;;;;;13.10;99.90;;;;;;5072545;28;19966;-71
2022/11/19 12:14:53;;;;;;;;;;;12.90;99.90;;;;;;5069492;28;20305;-71
2022/11/19 12:17:42;;;;;;;;;;;12.90;99.90;;;;;;5062135;28;19921;-70
2022/11/19 12:20:42;;;;;;;;;;;12.80;99.90;;;;;;5074615;28;19920;-70
2022/11/19 12:23:27;;;;;;;;;;;12.70;99.90;;;;;;5010089;28;20011;-70
2022/11/19 12:26:11;;;;;;;;;;;12.60;99.90;;;;;;5065360;28;19936;-70
2022/11/19 12:28:50;;;;;;;;;;;12.60;99.90;;;;;;5070731;28;19931;-70
2022/11/19 12:31:15;;;;;;;;;;;12.50;99.90;;;;;;5080243;28;19955;-70
2022/11/19 12:33:44;;;;;;;;;;;12.50;99.90;;;;;;5069577;28;19928;-70
2022/11/19 12:36:09;;;;;;;;;;;12.50;99.90;;;;;;5071204;28;19931;-70
2022/11/19 12:38:47;;;;;;;;;;;12.60;99.90;;;;;;5074369;28;19958;-70
2022/11/19 12:41:19;;;;;;;;;;;12.60;99.90;;;;;;5074563;28;19920;-70
2022/11/19 12:43:47;;;;;;;;;;;12.70;99.90;;;;;;5071423;28;19947;-70
2022/11/19 12:46:36;;;;;;;;;;;12.70;99.90;;;;;;5076532;28;19912;-70
2022/11/19 12:49:09;;;;;;;;;;;12.70;99.90;;;;;;5076429;28;19927;-70
2022/11/19 12:51:35;;;;;;;;;;;12.70;99.90;;;;;;5075383;28;20010;-70
2022/11/19 12:54:19;;;;;;;;;;;12.70;99.90;;;;;;5075885;28;19951;-69
2022/11/19 12:56:51;;;;;;;;;;;12.70;99.90;;;;;;5070811;28;20334;-69
2022/11/19 12:59:19;;;;;;;;;;;12.70;99.90;;;;;;5081472;28;19920;-70
2022/11/19 13:01:48;;;;;;;;;;;12.70;99.90;;;;;;5079074;28;20015;-70
2022/11/19 13:04:14;;;;;;;;;;;12.70;99.90;;;;;;5075231;28;19948;-70
2022/11/19 13:06:43;;;;;;;;;;;12.70;99.90;;;;;;5074796;28;19913;-70
2022/11/19 13:09:18;;;;;;;;;;;12.90;99.90;;;;;;5078831;28;19980;-69
2022/11/19 13:11:45;;;;;;;;;;;12.90;99.90;;;;;;5072810;28;19913;-70
2022/11/19 13:14:15;;;;;;;;;;;13.00;99.90;;;;;;5075153;28;20267;-70
2022/11/19 13:16:42;;;;;;;;;;;13.00;99.90;;;;;;5076590;28;19917;-70
2022/11/19 13:19:20;;;;;;;;;;;13.00;99.90;;;;;;5073619;28;19962;-69
2022/11/19 13:22:03;;;;;;;;;;;12.90;99.90;;;;;;5074430;28;19922;-70
2022/11/19 13:24:47;;;;;;;;;;;12.90;99.90;;;;;;5069136;28;19947;-70
2022/11/19 13:27:15;;;;;;;;;;;12.90;99.90;;;;;;5076230;28;19916;-70
2022/11/19 13:29:40;;;;;;;;;;;12.90;99.90;;;;;;5075700;28;19919;-70
2022/11/19 13:32:09;;;;;;;;;;;12.90;99.90;;;;;;5076195;28;19916;-70
2022/11/19 13:34:59;;;;;;;;;;;12.90;99.90;;;;;;5072789;28;19912;-70
2022/11/19 13:37:43;;;;;;;;;;;12.90;99.90;;;;;;5070868;28;19913;-70
2022/11/19 13:40:15;;;;;;;;;;;13.00;99.90;;;;;;5080862;28;19947;-70
2022/11/19 13:45:25;;;;;;;;;;;12.90;99.90;;;;;;5078733;28;20325;-70
2022/11/19 13:47:55;;;;;;;;;;;12.80;99.90;;;;;;5074023;28;19921;-70
2022/11/19 13:50:24;;;;;;;;;;;12.80;99.90;;;;;;5080877;28;19965;-70
2022/11/19 13:53:11;;;;;;;;;;;12.60;99.90;;;;;;5078737;28;19919;-70
2022/11/19 13:55:38;;;;;;;;;;;12.60;99.90;;;;;;5069799;28;19983;-70
2022/11/19 13:58:12;;;;;;;;;;;12.60;99.90;;;;;;5080668;28;19916;-70
2022/11/19 14:00:40;;;;;;;;;;;12.50;99.90;;;;;;5080319;28;19919;-70
2022/11/19 14:03:06;;;;;;;;;;;12.40;99.90;;;;;;5074731;28;19920;-70
2022/11/19 14:05:58;;;;;;;;;;;12.30;99.90;;;;;;5072579;28;20015;-70
2022/11/19 14:08:42;;;;;;;;;;;12.40;99.90;;;;;;5071882;28;19923;-70
2022/11/19 14:11:24;;;;;;;;;;;12.20;99.90;;;;;;5080526;28;19919;-70
2022/11/19 14:14:01;;;;;;;;;;;12.10;99.90;;;;;;5072812;28;19920;-71
2022/11/19 14:27:21;;;;;;;;;;;11.80;99.90;;;;;;5077378;28;19931;-70
2022/11/19 14:29:47;;;;;;;;;;;11.80;99.90;;;;;;5072892;28;19919;-70
2022/11/19 14:32:13;;;;;;;;;;;11.70;99.90;;;;;;5073211;28;19992;-69
2022/11/19 14:34:48;;;;;;;;;;;11.70;99.90;;;;;;5072930;28;19920;-70
2022/11/19 14:37:24;;;;;;;;;;;11.70;99.90;;;;;;5074432;28;19908;-75
2022/11/19 14:39:55;;;;;;;;;;;11.70;99.90;;;;;;5073506;28;19969;-70
2022/11/19 14:42:21;;;;;;;;;;;11.60;99.90;;;;;;5073389;28;19920;-70
2022/11/19 14:45:02;;;;;;;;;;;11.60;99.90;;;;;;5077332;28;19908;-69
2022/11/19 14:47:30;;;;;;;;;;;11.60;99.90;;;;;;5080640;28;19977;-69
2022/11/19 14:49:57;;;;;;;;;;;11.60;99.90;;;;;;5077277;28;19912;-69
2022/11/19 14:52:22;;;;;;;;;;;11.60;99.90;;;;;;5072913;28;20086;-69
2022/11/19 14:54:55;;;;;;;;;;;11.60;99.90;;;;;;5074668;28;20006;-68
2022/11/19 14:57:24;;;;;;;;;;;11.60;99.90;;;;;;5083840;28;19920;-69
2022/11/19 14:59:52;;;;;;;;;;;11.50;99.90;;;;;;5074190;28;20102;-68
2022/11/19 15:02:21;;;;;;;;;;;11.50;99.90;;;;;;5075187;28;19916;-69
2022/11/19 15:04:55;;;;;;;;;;;11.60;99.90;;;;;;5083173;28;19913;-69
2022/11/19 15:07:35;;;;;;;;;;;11.60;99.90;;;;;;5075027;28;20286;-69
2022/11/19 15:10:13;;;;;;;;;;;11.60;99.90;;;;;;5075002;28;19962;-69
2022/11/19 15:12:41;;;;;;;;;;;11.60;99.90;;;;;;5075315;28;19994;-70
2022/11/19 15:15:19;;;;;;;;;;;11.60;99.90;;;;;;5074570;28;19967;-69
2022/11/19 15:17:59;;;;;;;;;;;11.60;99.90;;;;;;5072972;28;19947;-69